createdAt,value
2019-06-26T00:00:45.849Z,1013.30
2019-06-26T00:01:45.869Z,1013.29
2019-06-26T00:02:45.892Z,1013.29
2019-06-26T00:03:45.897Z,1013.29
2019-06-26T00:04:45.922Z,1013.28
2019-06-26T00:05:45.917Z,1013.26
2019-06-26T00:06:45.939Z,1013.34
2019-06-26T00:07:45.958Z,1013.33
2019-06-26T00:08:45.964Z,1013.37
2019-06-26T00:09:45.977Z,1013.36
2019-06-26T00:10:45.993Z,1013.36
2019-06-26T00:11:46.008Z,1013.40
2019-06-26T00:12:46.018Z,1013.38
2019-06-26T00:13:46.042Z,1013.40
2019-06-26T00:14:46.056Z,1013.39
2019-06-26T00:15:46.149Z,1013.42
2019-06-26T00:16:46.086Z,1013.44
2019-06-26T00:17:46.094Z,1013.44
2019-06-26T00:18:46.111Z,1013.44
2019-06-26T00:19:46.118Z,1013.42
2019-06-26T00:20:46.130Z,1013.44
2019-06-26T00:21:46.148Z,1013.48
2019-06-26T00:22:46.161Z,1013.41
2019-06-26T00:23:46.564Z,1013.48
2019-06-26T00:24:46.190Z,1013.46
2019-06-26T00:25:46.204Z,1013.50
2019-06-26T00:26:46.212Z,1013.49
2019-06-26T00:27:46.231Z,1013.47
2019-06-26T00:28:46.249Z,1013.52
2019-06-26T00:29:46.261Z,1013.51
2019-06-26T00:30:46.356Z,1013.52
2019-06-26T00:31:46.293Z,1013.53
2019-06-26T00:32:46.305Z,1013.52
2019-06-26T00:33:46.318Z,1013.56
2019-06-26T00:34:46.327Z,1013.57
2019-06-26T00:35:46.340Z,1013.57
2019-06-26T00:36:46.359Z,1013.53
2019-06-26T00:37:46.368Z,1013.58
2019-06-26T00:38:46.384Z,1013.60
2019-06-26T00:39:46.406Z,1013.59
2019-06-26T00:40:46.477Z,1013.59
2019-06-26T00:41:46.425Z,1013.58
2019-06-26T00:42:46.447Z,1013.59
2019-06-26T00:43:46.455Z,1013.59
2019-06-26T00:44:46.467Z,1013.58
2019-06-26T00:45:46.483Z,1013.56
2019-06-26T00:46:46.499Z,1013.60
2019-06-26T00:47:46.520Z,1013.62
2019-06-26T00:48:46.526Z,1013.63
2019-06-26T00:49:46.535Z,1013.64
2019-06-26T00:50:46.550Z,1013.62
2019-06-26T00:51:46.589Z,1013.64
2019-06-26T00:52:46.573Z,1013.61
2019-06-26T00:53:46.591Z,1013.67
2019-06-26T00:54:46.614Z,1013.61
2019-06-26T00:55:46.623Z,1013.65
2019-06-26T00:56:46.634Z,1013.67
2019-06-26T00:57:46.649Z,1013.66
2019-06-26T00:58:46.674Z,1013.67
2019-06-26T00:59:46.675Z,1013.67
2019-06-26T01:00:46.690Z,1013.67
2019-06-26T01:01:46.713Z,1013.68
2019-06-26T01:02:46.719Z,1013.72
2019-06-26T01:03:46.736Z,1013.69
2019-06-26T01:04:46.742Z,1013.74
2019-06-26T01:05:46.767Z,1013.73
2019-06-26T01:06:46.774Z,1013.73
2019-06-26T01:07:46.790Z,1013.71
2019-06-26T01:08:46.835Z,1013.74
2019-06-26T01:09:46.816Z,1013.72
2019-06-26T01:10:46.828Z,1013.74
2019-06-26T01:11:46.848Z,1013.72
2019-06-26T01:12:46.850Z,1013.79
2019-06-26T01:13:57.795Z,1013.79
2019-06-26T01:14:46.883Z,1013.79
2019-06-26T01:15:46.894Z,1013.80
2019-06-26T01:16:46.911Z,1013.79
2019-06-26T01:17:46.935Z,1013.82
2019-06-26T01:18:46.940Z,1013.82
2019-06-26T01:19:46.953Z,1013.83
2019-06-26T01:20:46.962Z,1013.86
2019-06-26T01:21:46.988Z,1013.83
2019-06-26T01:22:46.995Z,1013.85
2019-06-26T01:23:47.081Z,1013.86
2019-06-26T01:24:47.028Z,1013.83
2019-06-26T01:25:47.027Z,1013.85
2019-06-26T01:26:47.045Z,1013.82
2019-06-26T01:27:47.062Z,1013.84
2019-06-26T01:28:47.074Z,1013.84
2019-06-26T01:29:47.087Z,1013.83
2019-06-26T01:30:47.109Z,1013.86
2019-06-26T01:31:47.112Z,1013.83
2019-06-26T01:32:47.126Z,1013.88
2019-06-26T01:33:47.140Z,1013.86
2019-06-26T01:34:47.170Z,1013.85
2019-06-26T01:35:47.169Z,1013.82
2019-06-26T01:36:47.178Z,1013.86
2019-06-26T01:37:47.196Z,1013.87
2019-06-26T01:38:47.223Z,1013.86
2019-06-26T01:39:47.223Z,1013.89
2019-06-26T01:40:47.233Z,1013.90
2019-06-26T01:41:47.253Z,1013.87
2019-06-26T01:42:47.274Z,1013.88
2019-06-26T01:43:47.272Z,1013.92
2019-06-26T01:44:47.291Z,1013.89
2019-06-26T01:45:47.310Z,1013.88
2019-06-26T01:46:47.317Z,1013.92
2019-06-26T01:47:47.328Z,1013.91
2019-06-26T01:48:47.351Z,1013.92
2019-06-26T01:49:47.361Z,1013.91
2019-06-26T01:50:47.378Z,1013.91
2019-06-26T01:51:47.390Z,1013.97
2019-06-26T01:52:47.401Z,1013.98
2019-06-26T01:53:47.416Z,1014.01
2019-06-26T01:54:47.429Z,1014.01
2019-06-26T01:55:47.454Z,1014.04
2019-06-26T01:56:47.453Z,1014.06
2019-06-26T01:57:47.464Z,1014.12
2019-06-26T01:58:47.479Z,1014.09
2019-06-26T01:59:47.496Z,1014.07
2019-06-26T02:00:47.680Z,1014.11
2019-06-26T02:01:47.521Z,1014.12
2019-06-26T02:02:47.531Z,1014.08
2019-06-26T02:03:47.551Z,1014.06
2019-06-26T02:04:47.564Z,1014.07
2019-06-26T02:05:47.595Z,1014.06
2019-06-26T02:06:47.586Z,1014.07
2019-06-26T02:07:47.607Z,1014.10
2019-06-26T02:08:47.739Z,1014.06
2019-06-26T02:09:47.627Z,1014.09
2019-06-26T02:10:47.658Z,1014.09
2019-06-26T02:11:47.665Z,1014.09
2019-06-26T02:12:47.669Z,1014.11
2019-06-26T02:13:47.679Z,1014.17
2019-06-26T02:14:47.698Z,1014.15
2019-06-26T02:15:47.722Z,1014.11
2019-06-26T02:16:47.733Z,1014.14
2019-06-26T02:17:47.737Z,1014.13
2019-06-26T02:18:47.754Z,1014.14
2019-06-26T02:19:47.765Z,1014.18
2019-06-26T02:20:47.768Z,1014.17
2019-06-26T02:21:47.788Z,1014.18
2019-06-26T02:22:49.631Z,1014.20
2019-06-26T02:23:47.821Z,1014.21
2019-06-26T02:24:47.836Z,1014.20
2019-06-26T02:25:47.845Z,1014.16
2019-06-26T02:26:47.859Z,1014.19
2019-06-26T02:27:47.868Z,1014.24
2019-06-26T02:28:47.890Z,1014.24
2019-06-26T02:29:47.897Z,1014.21
2019-06-26T02:30:48.040Z,1014.18
2019-06-26T02:31:47.923Z,1014.24
2019-06-26T02:32:47.938Z,1014.22
2019-06-26T02:33:47.955Z,1014.20
2019-06-26T02:34:47.974Z,1014.25
2019-06-26T02:35:47.987Z,1014.24
2019-06-26T02:36:47.989Z,1014.26
2019-06-26T02:37:48.013Z,1014.27
2019-06-26T02:38:48.018Z,1014.27
2019-06-26T02:39:48.033Z,1014.31
2019-06-26T02:40:48.043Z,1014.27
2019-06-26T02:41:48.066Z,1014.25
2019-06-26T02:42:48.102Z,1014.30
2019-06-26T02:43:48.124Z,1014.26
2019-06-26T02:44:53.919Z,1014.24
2019-06-26T02:45:48.113Z,1014.26
2019-06-26T02:46:48.126Z,1014.24
2019-06-26T02:47:48.139Z,1014.28
2019-06-26T02:48:48.153Z,1014.22
2019-06-26T02:49:48.175Z,1014.25
2019-06-26T02:50:48.224Z,1014.30
2019-06-26T02:51:48.199Z,1014.28
2019-06-26T02:52:48.204Z,1014.33
2019-06-26T02:53:48.219Z,1014.34
2019-06-26T02:54:48.229Z,1014.29
2019-06-26T02:55:48.242Z,1014.34
2019-06-26T02:56:48.257Z,1014.36
2019-06-26T02:57:48.269Z,1014.34
2019-06-26T02:58:48.304Z,1014.35
2019-06-26T02:59:48.310Z,1014.35
2019-06-26T03:00:48.316Z,1014.33
2019-06-26T03:01:48.327Z,1014.35
2019-06-26T03:02:48.343Z,1014.40
2019-06-26T03:03:48.353Z,1014.41
2019-06-26T03:04:48.371Z,1014.41
2019-06-26T03:05:48.377Z,1014.41
2019-06-26T03:06:48.387Z,1014.41
2019-06-26T03:07:48.421Z,1014.41
2019-06-26T03:08:48.433Z,1014.42
2019-06-26T03:09:48.427Z,1014.46
2019-06-26T03:10:48.439Z,1014.45
2019-06-26T03:11:48.458Z,1014.49
2019-06-26T03:12:48.473Z,1014.46
2019-06-26T03:13:48.480Z,1014.46
2019-06-26T03:14:48.528Z,1014.48
2019-06-26T03:15:50.644Z,1014.50
2019-06-26T03:16:48.535Z,1014.52
2019-06-26T03:17:55.358Z,1014.50
2019-06-26T03:18:48.561Z,1014.56
2019-06-26T03:19:48.568Z,1014.57
2019-06-26T03:20:48.584Z,1014.61
2019-06-26T03:21:48.600Z,1014.60
2019-06-26T03:22:48.601Z,1014.60
2019-06-26T03:23:48.614Z,1014.66
2019-06-26T03:24:48.625Z,1014.60
2019-06-26T03:25:48.642Z,1014.63
2019-06-26T03:26:48.663Z,1014.66
2019-06-26T03:27:48.664Z,1014.67
2019-06-26T03:28:48.829Z,1014.68
2019-06-26T03:29:48.689Z,1014.69
2019-06-26T03:30:48.706Z,1014.71
2019-06-26T03:31:48.719Z,1014.70
2019-06-26T03:32:48.733Z,1014.70
2019-06-26T03:33:48.772Z,1014.74
2019-06-26T03:34:48.778Z,1014.73
2019-06-26T03:35:48.778Z,1014.73
2019-06-26T03:36:48.791Z,1014.73
2019-06-26T03:37:48.802Z,1014.74
2019-06-26T03:38:48.814Z,1014.79
2019-06-26T03:39:48.826Z,1014.77
2019-06-26T03:40:48.847Z,1014.77
2019-06-26T03:41:48.848Z,1014.80
2019-06-26T03:42:48.865Z,1014.82
2019-06-26T03:43:48.944Z,1014.82
2019-06-26T03:44:48.922Z,1014.83
2019-06-26T03:45:48.914Z,1014.84
2019-06-26T03:46:48.916Z,1014.86
2019-06-26T03:47:48.929Z,1014.88
2019-06-26T03:48:48.946Z,1014.93
2019-06-26T03:49:48.953Z,1014.91
2019-06-26T03:50:48.961Z,1014.91
2019-06-26T03:51:48.999Z,1014.91
2019-06-26T03:52:49.008Z,1014.92
2019-06-26T03:53:49.015Z,1014.92
2019-06-26T03:54:49.022Z,1014.91
2019-06-26T03:55:49.044Z,1014.93
2019-06-26T03:56:49.057Z,1014.94
2019-06-26T03:57:49.062Z,1014.95
2019-06-26T03:58:49.080Z,1014.94
2019-06-26T03:59:49.096Z,1014.99
2019-06-26T04:00:49.098Z,1014.98
2019-06-26T04:01:49.127Z,1015.03
2019-06-26T04:02:49.126Z,1015.05
2019-06-26T04:03:49.146Z,1015.05
2019-06-26T04:04:49.149Z,1015.07
2019-06-26T04:05:49.166Z,1015.09
2019-06-26T04:06:49.181Z,1015.07
2019-06-26T04:07:49.195Z,1015.08
2019-06-26T04:08:49.201Z,1015.09
2019-06-26T04:09:49.219Z,1015.11
2019-06-26T04:10:49.236Z,1015.10
2019-06-26T04:11:49.303Z,1015.12
2019-06-26T04:12:49.269Z,1015.15
2019-06-26T04:13:49.334Z,1015.14
2019-06-26T04:14:49.287Z,1015.15
2019-06-26T04:15:51.032Z,1015.18
2019-06-26T04:16:49.318Z,1015.15
2019-06-26T04:17:49.326Z,1015.20
2019-06-26T04:18:49.334Z,1015.23
2019-06-26T04:19:49.347Z,1015.24
2019-06-26T04:20:49.357Z,1015.24
2019-06-26T04:21:49.375Z,1015.23
2019-06-26T04:22:49.385Z,1015.28
2019-06-26T04:23:49.401Z,1015.29
2019-06-26T04:24:49.412Z,1015.26
2019-06-26T04:25:49.433Z,1015.27
2019-06-26T04:26:49.443Z,1015.31
2019-06-26T04:27:49.455Z,1015.30
2019-06-26T04:28:49.468Z,1015.34
2019-06-26T04:29:49.534Z,1015.34
2019-06-26T04:30:49.497Z,1015.34
2019-06-26T04:31:49.511Z,1015.36
2019-06-26T04:32:49.520Z,1015.36
2019-06-26T04:33:49.533Z,1015.37
2019-06-26T04:34:49.547Z,1015.42
2019-06-26T04:35:49.570Z,1015.38
2019-06-26T04:36:49.572Z,1015.38
2019-06-26T04:37:49.589Z,1015.46
2019-06-26T04:38:49.598Z,1015.47
2019-06-26T04:39:49.614Z,1015.45
2019-06-26T04:40:49.627Z,1015.47
2019-06-26T04:41:49.636Z,1015.58
2019-06-26T04:42:49.653Z,1015.53
2019-06-26T04:43:49.663Z,1015.57
2019-06-26T04:44:49.678Z,1015.56
2019-06-26T04:45:58.195Z,1015.59
2019-06-26T04:46:49.705Z,1015.59
2019-06-26T04:47:49.719Z,1015.59
2019-06-26T04:48:49.732Z,1015.61
2019-06-26T04:49:49.743Z,1015.63
2019-06-26T04:50:49.767Z,1015.63
2019-06-26T04:51:49.769Z,1015.66
2019-06-26T04:52:49.787Z,1015.63
2019-06-26T04:53:49.797Z,1015.68
2019-06-26T04:54:49.810Z,1015.68
2019-06-26T04:55:49.824Z,1015.67
2019-06-26T04:56:49.854Z,1015.65
2019-06-26T04:57:49.849Z,1015.67
2019-06-26T04:58:49.868Z,1015.63
2019-06-26T04:59:49.875Z,1015.65
2019-06-26T05:00:49.887Z,1015.64
2019-06-26T05:01:49.907Z,1015.68
2019-06-26T05:02:49.916Z,1015.69
2019-06-26T05:03:49.957Z,1015.65
2019-06-26T05:04:49.942Z,1015.73
2019-06-26T05:05:49.955Z,1015.77
2019-06-26T05:06:49.984Z,1015.79
2019-06-26T05:07:50.004Z,1015.80
2019-06-26T05:08:49.996Z,1015.80
2019-06-26T05:09:50.013Z,1015.81
2019-06-26T05:10:50.044Z,1015.83
2019-06-26T05:11:50.034Z,1015.81
2019-06-26T05:12:50.053Z,1015.87
2019-06-26T05:13:50.065Z,1015.87
2019-06-26T05:14:50.076Z,1015.86
2019-06-26T05:15:50.093Z,1015.91
2019-06-26T05:16:50.122Z,1015.89
2019-06-26T05:17:50.117Z,1015.91
2019-06-26T05:18:50.131Z,1015.90
2019-06-26T05:19:50.147Z,1015.91
2019-06-26T05:20:50.156Z,1015.93
2019-06-26T05:21:50.169Z,1015.97
2019-06-26T05:22:50.185Z,1015.89
2019-06-26T05:23:50.198Z,1015.94
2019-06-26T05:24:50.208Z,1015.88
2019-06-26T05:25:50.229Z,1015.92
2019-06-26T05:26:50.238Z,1015.94
2019-06-26T05:27:50.249Z,1015.94
2019-06-26T05:28:50.262Z,1015.93
2019-06-26T05:29:50.278Z,1016.00
2019-06-26T05:30:50.295Z,1016.03
2019-06-26T05:31:50.313Z,1016.01
2019-06-26T05:32:50.317Z,1016.03
2019-06-26T05:33:50.360Z,1016.05
2019-06-26T05:34:50.359Z,1016.06
2019-06-26T05:35:50.359Z,1016.10
2019-06-26T05:36:50.377Z,1016.10
2019-06-26T05:37:50.386Z,1016.13
2019-06-26T05:38:50.404Z,1016.16
2019-06-26T05:39:53.811Z,1016.14
2019-06-26T05:40:50.430Z,1016.18
2019-06-26T05:41:50.439Z,1016.18
2019-06-26T05:42:50.460Z,1016.21
2019-06-26T05:43:50.495Z,1016.23
2019-06-26T05:44:50.492Z,1016.21
2019-06-26T05:45:50.500Z,1016.22
2019-06-26T05:46:50.507Z,1016.20
2019-06-26T05:47:50.526Z,1016.27
2019-06-26T05:48:50.544Z,1016.32
2019-06-26T05:49:50.549Z,1016.24
2019-06-26T05:50:50.568Z,1016.28
2019-06-26T05:51:50.625Z,1016.29
2019-06-26T05:52:50.612Z,1016.24
2019-06-26T05:53:50.605Z,1016.30
2019-06-26T05:54:50.617Z,1016.32
2019-06-26T05:55:50.638Z,1016.38
2019-06-26T05:56:50.649Z,1016.35
2019-06-26T05:57:50.661Z,1016.37
2019-06-26T05:58:50.680Z,1016.39
2019-06-26T05:59:50.694Z,1016.42
2019-06-26T06:00:50.711Z,1016.38
2019-06-26T06:01:50.713Z,1016.40
2019-06-26T06:02:53.795Z,1016.42
2019-06-26T06:03:50.735Z,1016.45
2019-06-26T06:04:50.757Z,1016.42
2019-06-26T06:05:50.792Z,1016.48
2019-06-26T06:06:50.798Z,1016.48
2019-06-26T06:07:50.799Z,1016.47
2019-06-26T06:08:50.815Z,1016.49
2019-06-26T06:09:50.832Z,1016.48
2019-06-26T06:10:50.843Z,1016.48
2019-06-26T06:11:50.855Z,1016.54
2019-06-26T06:12:50.871Z,1016.49
2019-06-26T06:13:50.883Z,1016.53
2019-06-26T06:14:50.898Z,1016.54
2019-06-26T06:15:50.912Z,1016.53
2019-06-26T06:16:50.946Z,1016.55
2019-06-26T06:17:50.940Z,1016.59
2019-06-26T06:18:50.954Z,1016.60
2019-06-26T06:19:50.962Z,1016.59
2019-06-26T06:20:50.975Z,1016.56
2019-06-26T06:21:50.998Z,1016.56
2019-06-26T06:22:51.005Z,1016.58
2019-06-26T06:23:51.023Z,1016.65
2019-06-26T06:24:51.036Z,1016.64
2019-06-26T06:25:51.049Z,1016.64
2019-06-26T06:26:51.062Z,1016.65
2019-06-26T06:27:51.078Z,1016.66
2019-06-26T06:28:51.097Z,1016.64
2019-06-26T06:29:51.100Z,1016.71
2019-06-26T06:30:51.119Z,1016.70
2019-06-26T06:31:51.130Z,1016.69
2019-06-26T06:32:51.145Z,1016.69
2019-06-26T06:33:51.159Z,1016.70
2019-06-26T06:34:51.176Z,1016.75
2019-06-26T06:35:51.188Z,1016.85
2019-06-26T06:36:51.202Z,1016.87
2019-06-26T06:37:51.211Z,1016.93
2019-06-26T06:38:51.292Z,1016.95
2019-06-26T06:39:51.246Z,1017.00
2019-06-26T06:40:51.259Z,1017.02
2019-06-26T06:41:51.272Z,1017.01
2019-06-26T06:42:51.288Z,1017.07
2019-06-26T06:43:51.305Z,1017.07
2019-06-26T06:44:51.326Z,1017.10
2019-06-26T06:45:51.333Z,1017.10
2019-06-26T06:47:03.404Z,1017.16
2019-06-26T06:47:51.369Z,1017.21
2019-06-26T06:48:51.381Z,1017.26
2019-06-26T06:49:51.399Z,1017.24
2019-06-26T06:50:51.412Z,1017.33
2019-06-26T06:51:51.438Z,1017.36
2019-06-26T06:52:51.447Z,1017.48
2019-06-26T06:53:51.458Z,1017.55
2019-06-26T06:54:51.480Z,1017.63
2019-06-26T06:55:51.497Z,1017.67
2019-06-26T06:56:51.512Z,1017.63
2019-06-26T06:57:51.530Z,1017.64
2019-06-26T06:58:51.543Z,1017.74
2019-06-26T06:59:51.555Z,1017.71
2019-06-26T07:00:51.576Z,1017.73
2019-06-26T07:01:51.590Z,1017.73
2019-06-26T07:02:51.607Z,1017.83
2019-06-26T07:03:51.633Z,1017.84
2019-06-26T07:04:51.642Z,1018.04
2019-06-26T07:05:51.669Z,1018.11
2019-06-26T07:06:51.680Z,1017.97
2019-06-26T07:07:51.700Z,1017.81
2019-06-26T07:08:51.711Z,1017.84
2019-06-26T07:09:51.725Z,1017.96
2019-06-26T07:10:51.742Z,1017.98
2019-06-26T07:11:51.781Z,1017.96
2019-06-26T07:12:51.874Z,1018.04
2019-06-26T07:13:51.783Z,1018.09
2019-06-26T07:14:51.811Z,1018.10
2019-06-26T07:15:51.824Z,1018.09
2019-06-26T07:16:51.850Z,1018.09
2019-06-26T07:17:51.860Z,1018.19
2019-06-26T07:18:51.878Z,1018.17
2019-06-26T07:19:51.900Z,1018.11
2019-06-26T07:20:51.908Z,1018.13
2019-06-26T07:21:51.927Z,1018.10
2019-06-26T07:22:51.944Z,1018.12
2019-06-26T07:23:51.962Z,1018.14
2019-06-26T07:24:51.978Z,1018.04
2019-06-26T07:25:52.021Z,1018.12
2019-06-26T07:26:52.017Z,1018.08
2019-06-26T07:27:52.034Z,1018.03
2019-06-26T07:28:52.045Z,1018.09
2019-06-26T07:29:52.073Z,1018.12
2019-06-26T07:30:52.085Z,1018.15
2019-06-26T07:31:52.101Z,1018.16
2019-06-26T07:32:52.120Z,1018.12
2019-06-26T07:33:55.414Z,1018.13
2019-06-26T07:34:52.167Z,1018.16
2019-06-26T07:35:52.173Z,1018.11
2019-06-26T07:36:52.197Z,1018.16
2019-06-26T07:37:52.205Z,1018.24
2019-06-26T07:38:52.234Z,1018.24
2019-06-26T07:39:52.239Z,1018.30
2019-06-26T07:40:52.256Z,1018.31
2019-06-26T07:41:52.281Z,1018.30
2019-06-26T07:42:52.291Z,1018.33
2019-06-26T07:43:52.307Z,1018.32
2019-06-26T07:44:52.324Z,1018.29
2019-06-26T07:45:52.349Z,1018.35
2019-06-26T07:46:52.415Z,1018.34
2019-06-26T07:47:52.377Z,1018.40
2019-06-26T07:48:52.398Z,1018.45
2019-06-26T07:49:52.416Z,1018.40
2019-06-26T07:50:52.560Z,1018.44
2019-06-26T07:51:52.462Z,1018.49
2019-06-26T07:52:52.467Z,1018.53
2019-06-26T07:53:52.486Z,1018.57
2019-06-26T07:54:52.508Z,1018.59
2019-06-26T07:55:52.565Z,1018.64
2019-06-26T07:56:52.542Z,1018.60
2019-06-26T07:57:52.566Z,1018.61
2019-06-26T07:58:52.580Z,1018.65
2019-06-26T07:59:52.596Z,1018.68
2019-06-26T08:00:52.609Z,1018.75
2019-06-26T08:01:52.631Z,1018.69
2019-06-26T08:02:52.668Z,1018.72
2019-06-26T08:03:52.671Z,1018.74
2019-06-26T08:04:52.701Z,1018.77
2019-06-26T08:05:52.705Z,1018.78
2019-06-26T08:06:52.719Z,1018.85
2019-06-26T08:07:52.741Z,1018.80
2019-06-26T08:08:52.767Z,1018.83
2019-06-26T08:09:52.776Z,1018.80
2019-06-26T08:10:52.797Z,1018.86
2019-06-26T08:11:52.812Z,1018.90
2019-06-26T08:12:52.838Z,1018.85
2019-06-26T08:13:52.859Z,1018.87
2019-06-26T08:14:52.872Z,1018.94
2019-06-26T08:15:52.892Z,1018.97
2019-06-26T08:16:52.907Z,1018.99
2019-06-26T08:18:00.713Z,1019.03
2019-06-26T08:18:52.947Z,1019.12
2019-06-26T08:19:52.962Z,1019.23
2019-06-26T08:21:10.858Z,1019.33
2019-06-26T08:21:52.996Z,1019.54
2019-06-26T08:22:53.014Z,1019.72
2019-06-26T08:23:53.092Z,1020.00
2019-06-26T08:24:53.110Z,1020.34
2019-06-26T08:25:53.088Z,1020.70
2019-06-26T08:26:53.097Z,1021.17
2019-06-26T08:27:53.115Z,1021.75
2019-06-26T08:28:53.126Z,1022.00
2019-06-26T08:29:53.145Z,1022.54
2019-06-26T08:30:53.164Z,1023.49
2019-06-26T08:31:53.186Z,1024.48
2019-06-26T08:32:53.205Z,1025.29
2019-06-26T08:33:53.227Z,1025.87
2019-06-26T08:34:53.301Z,1027.11
2019-06-26T08:35:53.275Z,1027.80
2019-06-26T08:36:53.283Z,1028.10
2019-06-26T08:38:08.886Z,1027.97
2019-06-26T08:38:53.317Z,1028.28
2019-06-26T08:39:53.350Z,1029.53
2019-06-26T08:40:53.361Z,1029.86
2019-06-26T08:41:53.382Z,1031.06
2019-06-26T08:42:53.398Z,1032.22
2019-06-26T08:43:53.418Z,1032.20
2019-06-26T08:44:53.440Z,1034.42
2019-06-26T08:45:53.459Z,1034.92
2019-06-26T08:46:53.480Z,1034.79
2019-06-26T08:47:53.496Z,1036.39
2019-06-26T08:48:53.517Z,1035.16
2019-06-26T08:49:53.532Z,1037.07
2019-06-26T08:50:53.557Z,1036.36
2019-06-26T08:51:53.578Z,1036.52
2019-06-26T08:52:53.594Z,1037.18
2019-06-26T08:53:53.614Z,1037.44
2019-06-26T08:54:53.638Z,1036.86
2019-06-26T08:55:53.654Z,1038.79
2019-06-26T08:56:53.679Z,1037.70
2019-06-26T08:57:53.692Z,1038.18
2019-06-26T08:58:53.729Z,1036.93
2019-06-26T08:59:53.745Z,1039.47
2019-06-26T09:00:53.758Z,1040.33
2019-06-26T09:01:53.778Z,1038.04
2019-06-26T09:02:53.790Z,1039.28
2019-06-26T09:03:53.813Z,1041.69
2019-06-26T09:04:53.826Z,1042.06
2019-06-26T09:05:53.849Z,1041.51
2019-06-26T09:06:53.876Z,1040.46
2019-06-26T09:07:53.911Z,1039.83
2019-06-26T09:08:53.989Z,1040.26
2019-06-26T09:09:53.934Z,1041.57
2019-06-26T09:10:53.944Z,1038.78
2019-06-26T09:11:53.964Z,1036.24
2019-06-26T09:12:53.985Z,1035.65
2019-06-26T09:13:54.011Z,1037.91
2019-06-26T09:14:54.033Z,1039.86
2019-06-26T09:15:54.044Z,1041.27
2019-06-26T09:16:54.071Z,1042.24
2019-06-26T09:17:54.086Z,1041.92
2019-06-26T09:18:54.104Z,1041.28
2019-06-26T09:19:54.124Z,1042.34
2019-06-26T09:20:54.147Z,1042.07
2019-06-26T09:21:54.164Z,1042.12
2019-06-26T09:22:54.193Z,1040.37
2019-06-26T09:23:54.203Z,1041.09
2019-06-26T09:24:54.227Z,1042.70
2019-06-26T09:25:54.245Z,1042.20
2019-06-26T09:26:54.264Z,1039.70
2019-06-26T09:27:54.283Z,1040.31
2019-06-26T09:28:54.301Z,1043.82
2019-06-26T09:29:54.439Z,1043.39
2019-06-26T09:30:54.349Z,1043.50
2019-06-26T09:31:54.370Z,1043.48
2019-06-26T09:32:54.385Z,1041.77
2019-06-26T09:33:54.403Z,1042.60
2019-06-26T09:34:54.442Z,1042.27
2019-06-26T09:35:54.439Z,1040.17
2019-06-26T09:36:54.468Z,1040.13
2019-06-26T09:37:54.496Z,1039.85
2019-06-26T09:38:57.745Z,1040.10
2019-06-26T09:39:54.518Z,1040.94
2019-06-26T09:40:54.545Z,1039.87
2019-06-26T09:41:54.563Z,1041.51
2019-06-26T09:42:54.583Z,1040.57
2019-06-26T09:43:54.601Z,1039.91
2019-06-26T09:44:54.629Z,1037.90
2019-06-26T09:45:54.639Z,1036.54
2019-06-26T09:47:54.683Z,1037.73
2019-06-26T09:48:54.701Z,1037.34
2019-06-26T09:49:54.730Z,1037.07
2019-06-26T09:50:54.744Z,1036.90
2019-06-26T09:51:54.766Z,1036.91
2019-06-26T09:52:54.786Z,1035.75
2019-06-26T09:53:54.804Z,1035.53
2019-06-26T09:54:54.824Z,1036.19
2019-06-26T09:55:54.906Z,1036.89
2019-06-26T09:56:54.888Z,1036.23
2019-06-26T09:57:54.885Z,1035.38
2019-06-26T09:58:54.903Z,1035.06
2019-06-26T09:59:54.923Z,1033.53
2019-06-26T10:00:54.951Z,1033.63
2019-06-26T10:01:54.985Z,1033.87
2019-06-26T10:02:54.985Z,1034.28
2019-06-26T10:03:55.009Z,1034.10
2019-06-26T10:04:55.025Z,1033.51
2019-06-26T10:05:55.048Z,1032.63
2019-06-26T10:06:55.070Z,1032.37
2019-06-26T10:07:55.146Z,1032.59
2019-06-26T10:08:55.105Z,1032.79
2019-06-26T10:09:55.177Z,1032.77
2019-06-26T10:10:55.146Z,1032.55
2019-06-26T10:11:55.178Z,1032.31
2019-06-26T10:12:55.189Z,1032.15
2019-06-26T10:13:55.373Z,1031.23
2019-06-26T10:14:55.235Z,1031.29
2019-06-26T10:15:55.253Z,1030.87
2019-06-26T10:16:55.273Z,1029.98
2019-06-26T10:17:55.300Z,1029.89
2019-06-26T10:19:09.051Z,1029.57
2019-06-26T10:19:55.337Z,1028.99
2019-06-26T10:20:55.354Z,1029.07
2019-06-26T10:21:55.377Z,1029.06
2019-06-26T10:22:55.394Z,1028.67
2019-06-26T10:23:55.482Z,1029.34
2019-06-26T10:24:55.434Z,1028.58
2019-06-26T10:25:55.467Z,1028.70
2019-06-26T10:26:55.481Z,1028.08
2019-06-26T10:27:55.498Z,1028.09
2019-06-26T10:28:55.537Z,1027.03
2019-06-26T10:29:55.611Z,1026.64
2019-06-26T10:30:55.559Z,1027.14
2019-06-26T10:31:55.595Z,1027.80
2019-06-26T10:32:55.645Z,1027.90
2019-06-26T10:33:55.622Z,1028.26
2019-06-26T10:34:55.657Z,1028.01
2019-06-26T10:35:55.664Z,1027.96
2019-06-26T10:36:55.689Z,1027.83
2019-06-26T10:37:55.717Z,1027.84
2019-06-26T10:38:55.727Z,1028.03
2019-06-26T10:39:55.745Z,1027.78
2019-06-26T10:40:55.790Z,1027.01
2019-06-26T10:41:55.790Z,1027.14
2019-06-26T10:42:55.820Z,1027.49
2019-06-26T10:43:55.831Z,1027.47
2019-06-26T10:44:55.849Z,1027.10
2019-06-26T10:45:55.871Z,1026.98
2019-06-26T10:46:55.895Z,1026.57
2019-06-26T10:47:55.911Z,1026.75
2019-06-26T10:48:55.933Z,1026.68
2019-06-26T10:49:55.957Z,1026.36
2019-06-26T10:50:58.853Z,1025.79
2019-06-26T10:52:56.026Z,1025.91
2019-06-26T10:53:56.044Z,1025.52
2019-06-26T10:54:56.058Z,1025.07
2019-06-26T10:55:56.088Z,1024.89
2019-06-26T10:56:56.103Z,1024.36
2019-06-26T10:57:56.122Z,1023.85
2019-06-26T10:58:56.143Z,1023.33
2019-06-26T10:59:56.228Z,1022.68
2019-06-26T11:00:56.193Z,1022.12
2019-06-26T11:01:56.218Z,1021.58
2019-06-26T11:02:56.230Z,1021.41
2019-06-26T11:03:56.246Z,1020.93
2019-06-26T11:04:56.272Z,1020.70
2019-06-26T11:05:56.288Z,1020.73
2019-06-26T11:06:56.304Z,1020.46
2019-06-26T11:07:56.327Z,1020.45
2019-06-26T11:08:56.360Z,1020.44
2019-06-26T11:09:56.370Z,1020.28
2019-06-26T11:10:56.397Z,1020.11
2019-06-26T11:11:56.426Z,1019.96
2019-06-26T11:12:56.434Z,1019.88
2019-06-26T11:13:56.460Z,1019.75
2019-06-26T11:14:56.470Z,1019.71
2019-06-26T11:15:56.492Z,1019.75
2019-06-26T11:16:56.548Z,1019.76
2019-06-26T11:17:56.639Z,1019.79
2019-06-26T11:18:56.555Z,1019.80
2019-06-26T11:19:56.575Z,1019.67
2019-06-26T11:20:56.597Z,1019.71
2019-06-26T11:21:56.613Z,1019.59
2019-06-26T11:22:56.687Z,1019.57
2019-06-26T11:23:56.658Z,1019.58
2019-06-26T11:24:56.730Z,1019.61
2019-06-26T11:25:56.700Z,1019.44
2019-06-26T11:26:56.716Z,1019.42
2019-06-26T11:27:56.741Z,1019.50
2019-06-26T11:28:56.766Z,1019.48
2019-06-26T11:29:56.784Z,1019.37
2019-06-26T11:30:56.800Z,1019.42
2019-06-26T11:31:56.822Z,1019.51
2019-06-26T11:32:56.842Z,1019.44
2019-06-26T11:33:56.862Z,1019.41
2019-06-26T11:34:57.032Z,1019.47
2019-06-26T11:35:56.902Z,1019.41
2019-06-26T11:37:03.934Z,1019.40
2019-06-26T11:37:56.965Z,1019.34
2019-06-26T11:38:56.970Z,1019.40
2019-06-26T11:39:56.985Z,1019.43
2019-06-26T11:40:57.008Z,1019.30
2019-06-26T11:41:57.022Z,1019.28
2019-06-26T11:42:57.045Z,1019.31
2019-06-26T11:43:57.067Z,1019.29
2019-06-26T11:44:57.088Z,1019.29
2019-06-26T11:45:57.109Z,1019.20
2019-06-26T11:46:57.124Z,1019.22
2019-06-26T11:47:57.147Z,1019.24
2019-06-26T11:48:57.167Z,1019.20
2019-06-26T11:50:00.335Z,1019.20
2019-06-26T11:50:57.211Z,1019.28
2019-06-26T11:51:57.251Z,1019.25
2019-06-26T11:52:57.262Z,1019.14
2019-06-26T11:53:59.078Z,1019.08
2019-06-26T11:55:02.647Z,1019.04
2019-06-26T11:55:57.313Z,1019.04
2019-06-26T11:56:57.332Z,1019.07
2019-06-26T11:57:57.359Z,1019.06
2019-06-26T11:58:57.393Z,1019.13
2019-06-26T11:59:57.409Z,1019.08
2019-06-26T12:00:57.451Z,1019.08
2019-06-26T12:01:57.443Z,1019.07
2019-06-26T12:02:57.489Z,1019.03
2019-06-26T12:03:57.484Z,1019.05
2019-06-26T12:04:57.509Z,1018.96
2019-06-26T12:06:11.871Z,1018.89
2019-06-26T12:07:57.584Z,1019.03
2019-06-26T12:08:57.590Z,1018.99